sensor_id;sensor_type;location;lat;lon;timestamp;pressure;altitude;pressure_sealevel;temperature;humidity
5126;BME280;63008;53.112;8.896;2022-08-21T00:00:33;101630.75;;;15.07;73.89
5126;BME280;63008;53.112;8.896;2022-08-21T00:02:33;101632.94;;;15.01;73.96
5126;BME280;63008;53.112;8.896;2022-08-21T00:04:34;101635.78;;;14.93;74.34
5126;BME280;63008;53.112;8.896;2022-08-21T00:06:35;101629.56;;;14.96;74.32
5126;BME280;63008;53.112;8.896;2022-08-21T00:08:37;101623.38;;;14.99;73.93
5126;BME280;63008;53.112;8.896;2022-08-21T00:10:40;101625.31;;;14.98;74.00
5126;BME280;63008;53.112;8.896;2022-08-21T00:12:42;101623.84;;;15.01;73.61
5126;BME280;63008;53.112;8.896;2022-08-21T00:14:42;101622.09;;;14.96;73.83
5126;BME280;63008;53.112;8.896;2022-08-21T00:16:43;101613.91;;;14.88;74.09
5126;BME280;63008;53.112;8.896;2022-08-21T00:18:44;101617.81;;;14.87;74.25
5126;BME280;63008;53.112;8.896;2022-08-21T00:20:45;101623.00;;;14.88;74.14
5126;BME280;63008;53.112;8.896;2022-08-21T00:22:47;101615.75;;;14.96;73.93
5126;BME280;63008;53.112;8.896;2022-08-21T00:24:47;101613.94;;;15.00;73.89
5126;BME280;63008;53.112;8.896;2022-08-21T00:26:49;101619.56;;;14.91;74.11
5126;BME280;63008;53.112;8.896;2022-08-21T00:28:49;101614.44;;;14.81;74.58
5126;BME280;63008;53.112;8.896;2022-08-21T00:30:50;101616.59;;;14.76;74.80
5126;BME280;63008;53.112;8.896;2022-08-21T00:32:52;101616.97;;;14.74;74.91
5126;BME280;63008;53.112;8.896;2022-08-21T00:34:53;101619.13;;;14.69;75.13
5126;BME280;63008;53.112;8.896;2022-08-21T00:36:54;101622.69;;;14.69;75.42
5126;BME280;63008;53.112;8.896;2022-08-21T00:38:55;101607.31;;;14.80;74.77
5126;BME280;63008;53.112;8.896;2022-08-21T00:40:58;101620.44;;;14.83;74.81
5126;BME280;63008;53.112;8.896;2022-08-21T00:43:15;101623.44;;;14.78;74.87
5126;BME280;63008;53.112;8.896;2022-08-21T00:45:23;101610.28;;;14.75;75.20
5126;BME280;63008;53.112;8.896;2022-08-21T00:47:24;101610.03;;;14.68;75.17
5126;BME280;63008;53.112;8.896;2022-08-21T00:49:25;101605.53;;;14.64;75.46
5126;BME280;63008;53.112;8.896;2022-08-21T00:51:32;101609.22;;;14.68;75.27
5126;BME280;63008;53.112;8.896;2022-08-21T00:53:39;101602.78;;;14.64;75.48
5126;BME280;63008;53.112;8.896;2022-08-21T00:55:40;101602.63;;;14.61;75.73
5126;BME280;63008;53.112;8.896;2022-08-21T00:57:49;101609.22;;;14.68;75.34
5126;BME280;63008;53.112;8.896;2022-08-21T00:59:52;101605.41;;;14.61;75.51
5126;BME280;63008;53.112;8.896;2022-08-21T01:01:54;101601.91;;;14.52;75.95
5126;BME280;63008;53.112;8.896;2022-08-21T01:03:54;101607.50;;;14.43;76.21
5126;BME280;63008;53.112;8.896;2022-08-21T01:05:55;101606.28;;;14.53;76.10
5126;BME280;63008;53.112;8.896;2022-08-21T01:07:55;101611.59;;;14.58;75.64
5126;BME280;63008;53.112;8.896;2022-08-21T01:09:57;101613.56;;;14.57;75.68
5126;BME280;63008;53.112;8.896;2022-08-21T01:11:58;101609.31;;;14.60;75.80
5126;BME280;63008;53.112;8.896;2022-08-21T01:14:02;101615.09;;;14.66;75.33
5126;BME280;63008;53.112;8.896;2022-08-21T01:16:04;101610.16;;;14.72;75.16
5126;BME280;63008;53.112;8.896;2022-08-21T01:18:10;101610.38;;;14.67;75.32
5126;BME280;63008;53.112;8.896;2022-08-21T01:20:11;101614.28;;;14.66;75.51
5126;BME280;63008;53.112;8.896;2022-08-21T01:22:12;101605.06;;;14.62;75.12
5126;BME280;63008;53.112;8.896;2022-08-21T01:24:13;101606.31;;;14.64;75.25
5126;BME280;63008;53.112;8.896;2022-08-21T01:26:16;101610.97;;;14.72;75.10
5126;BME280;63008;53.112;8.896;2022-08-21T01:28:17;101610.75;;;14.77;74.76
5126;BME280;63008;53.112;8.896;2022-08-21T01:30:22;101617.22;;;14.81;74.37
5126;BME280;63008;53.112;8.896;2022-08-21T01:32:24;101608.13;;;14.81;74.34
5126;BME280;63008;53.112;8.896;2022-08-21T01:34:25;101614.81;;;14.80;74.37
5126;BME280;63008;53.112;8.896;2022-08-21T01:36:26;101606.63;;;14.83;74.23
5126;BME280;63008;53.112;8.896;2022-08-21T01:38:26;101609.97;;;14.89;74.12
5126;BME280;63008;53.112;8.896;2022-08-21T01:40:27;101609.38;;;14.83;74.22
5126;BME280;63008;53.112;8.896;2022-08-21T01:42:35;101607.44;;;14.84;74.03
5126;BME280;63008;53.112;8.896;2022-08-21T01:44:48;101603.25;;;14.78;74.46
5126;BME280;63008;53.112;8.896;2022-08-21T01:46:49;101609.28;;;14.80;74.35
5126;BME280;63008;53.112;8.896;2022-08-21T01:48:50;101607.78;;;14.82;74.21
5126;BME280;63008;53.112;8.896;2022-08-21T01:50:51;101606.75;;;14.87;74.17
5126;BME280;63008;53.112;8.896;2022-08-21T01:52:51;101601.09;;;14.83;74.36
5126;BME280;63008;53.112;8.896;2022-08-21T01:54:52;101606.50;;;14.80;74.39
5126;BME280;63008;53.112;8.896;2022-08-21T01:56:53;101607.63;;;14.79;74.62
5126;BME280;63008;53.112;8.896;2022-08-21T01:58:55;101609.47;;;14.75;74.65
5126;BME280;63008;53.112;8.896;2022-08-21T02:00:55;101608.88;;;14.69;74.92
5126;BME280;63008;53.112;8.896;2022-08-21T02:02:56;101603.25;;;14.66;75.11
5126;BME280;63008;53.112;8.896;2022-08-21T02:04:56;101603.09;;;14.63;75.25
5126;BME280;63008;53.112;8.896;2022-08-21T02:06:57;101603.25;;;14.66;75.28
5126;BME280;63008;53.112;8.896;2022-08-21T02:08:57;101604.72;;;14.63;75.27
5126;BME280;63008;53.112;8.896;2022-08-21T02:10:58;101597.44;;;14.59;75.53
5126;BME280;63008;53.112;8.896;2022-08-21T02:13:00;101607.22;;;14.57;75.62
5126;BME280;63008;53.112;8.896;2022-08-21T02:15:01;101602.03;;;14.55;75.60
5126;BME280;63008;53.112;8.896;2022-08-21T02:17:03;101596.72;;;14.50;75.55
5126;BME280;63008;53.112;8.896;2022-08-21T02:19:04;101593.81;;;14.47;75.79
5126;BME280;63008;53.112;8.896;2022-08-21T02:21:05;101598.28;;;14.39;76.03
5126;BME280;63008;53.112;8.896;2022-08-21T02:23:08;101593.91;;;14.38;76.14
5126;BME280;63008;53.112;8.896;2022-08-21T02:25:09;101592.28;;;14.37;76.07
5126;BME280;63008;53.112;8.896;2022-08-21T02:27:10;101590.53;;;14.33;76.28
5126;BME280;63008;53.112;8.896;2022-08-21T02:29:10;101591.81;;;14.35;76.27
5126;BME280;63008;53.112;8.896;2022-08-21T02:31:11;101583.22;;;14.37;76.27
5126;BME280;63008;53.112;8.896;2022-08-21T02:33:19;101588.00;;;14.28;76.46
5126;BME280;63008;53.112;8.896;2022-08-21T02:35:20;101578.09;;;14.27;76.70
5126;BME280;63008;53.112;8.896;2022-08-21T02:37:21;101578.31;;;14.22;76.74
5126;BME280;63008;53.112;8.896;2022-08-21T02:39:21;101575.41;;;14.18;76.95
5126;BME280;63008;53.112;8.896;2022-08-21T02:41:22;101570.53;;;14.15;76.98
5126;BME280;63008;53.112;8.896;2022-08-21T02:43:36;101570.75;;;14.10;77.17
5126;BME280;63008;53.112;8.896;2022-08-21T02:45:45;101572.81;;;14.13;77.10
5126;BME280;63008;53.112;8.896;2022-08-21T02:48:01;101570.38;;;14.12;77.18
5126;BME280;63008;53.112;8.896;2022-08-21T02:50:04;101566.66;;;14.16;77.08
5126;BME280;63008;53.112;8.896;2022-08-21T02:52:05;101564.81;;;14.20;76.90
5126;BME280;63008;53.112;8.896;2022-08-21T02:54:07;101567.25;;;14.22;76.63
5126;BME280;63008;53.112;8.896;2022-08-21T02:56:09;101564.41;;;14.30;76.48
5126;BME280;63008;53.112;8.896;2022-08-21T02:58:11;101559.91;;;14.26;76.47
5126;BME280;63008;53.112;8.896;2022-08-21T03:00:14;101557.47;;;14.24;76.62
5126;BME280;63008;53.112;8.896;2022-08-21T03:02:15;101560.91;;;14.21;76.75
5126;BME280;63008;53.112;8.896;2022-08-21T03:04:16;101551.53;;;14.14;77.01
5126;BME280;63008;53.112;8.896;2022-08-21T03:06:19;101559.81;;;14.14;76.99
5126;BME280;63008;53.112;8.896;2022-08-21T03:08:22;101555.03;;;14.02;77.28
5126;BME280;63008;53.112;8.896;2022-08-21T03:10:22;101556.84;;;13.98;77.42
5126;BME280;63008;53.112;8.896;2022-08-21T03:12:23;101550.50;;;13.98;77.44
5126;BME280;63008;53.112;8.896;2022-08-21T03:14:24;101557.00;;;14.02;77.58
5126;BME280;63008;53.112;8.896;2022-08-21T03:16:25;101556.66;;;14.03;77.54
5126;BME280;63008;53.112;8.896;2022-08-21T03:18:25;101555.78;;;14.11;77.44
5126;BME280;63008;53.112;8.896;2022-08-21T03:20:27;101560.94;;;14.13;77.57
5126;BME280;63008;53.112;8.896;2022-08-21T03:22:28;101562.06;;;14.20;77.34
5126;BME280;63008;53.112;8.896;2022-08-21T03:24:29;101562.66;;;14.26;77.01
5126;BME280;63008;53.112;8.896;2022-08-21T03:26:29;101551.22;;;14.36;77.03
5126;BME280;63008;53.112;8.896;2022-08-21T03:28:30;101564.59;;;14.46;76.58
5126;BME280;63008;53.112;8.896;2022-08-21T03:30:31;101548.31;;;14.64;75.60
5126;BME280;63008;53.112;8.896;2022-08-21T03:32:32;101547.88;;;14.74;74.88
5126;BME280;63008;53.112;8.896;2022-08-21T03:34:39;101546.72;;;14.87;74.23
5126;BME280;63008;53.112;8.896;2022-08-21T03:36:40;101547.88;;;14.86;73.97
5126;BME280;63008;53.112;8.896;2022-08-21T03:38:41;101542.13;;;14.79;74.02
5126;BME280;63008;53.112;8.896;2022-08-21T03:40:43;101539.59;;;14.74;73.91
5126;BME280;63008;53.112;8.896;2022-08-21T03:42:43;101535.09;;;14.70;73.76
5126;BME280;63008;53.112;8.896;2022-08-21T03:44:57;101536.78;;;14.63;73.79
5126;BME280;63008;53.112;8.896;2022-08-21T03:46:58;101537.72;;;14.34;74.64
5126;BME280;63008;53.112;8.896;2022-08-21T03:48:59;101535.69;;;14.43;74.42
5126;BME280;63008;53.112;8.896;2022-08-21T03:50:59;101533.88;;;14.47;74.18
5126;BME280;63008;53.112;8.896;2022-08-21T03:53:00;101537.19;;;14.41;74.12
5126;BME280;63008;53.112;8.896;2022-08-21T03:55:01;101538.28;;;14.28;74.61
5126;BME280;63008;53.112;8.896;2022-08-21T03:57:02;101536.75;;;14.18;75.03
5126;BME280;63008;53.112;8.896;2022-08-21T03:59:03;101538.75;;;14.09;75.47
5126;BME280;63008;53.112;8.896;2022-08-21T04:01:05;101534.09;;;14.01;75.75
5126;BME280;63008;53.112;8.896;2022-08-21T04:03:06;101536.47;;;13.91;76.33
5126;BME280;63008;53.112;8.896;2022-08-21T04:05:07;101548.38;;;13.83;76.71
5126;BME280;63008;53.112;8.896;2022-08-21T04:07:08;101546.75;;;14.02;76.14
5126;BME280;63008;53.112;8.896;2022-08-21T04:09:09;101555.38;;;14.01;76.35
5126;BME280;63008;53.112;8.896;2022-08-21T04:11:09;101553.22;;;14.06;76.56
5126;BME280;63008;53.112;8.896;2022-08-21T04:13:13;101555.59;;;14.16;76.26
5126;BME280;63008;53.112;8.896;2022-08-21T04:15:15;101554.13;;;14.19;76.15
5126;BME280;63008;53.112;8.896;2022-08-21T04:17:16;101558.09;;;14.09;76.56
5126;BME280;63008;53.112;8.896;2022-08-21T04:19:16;101559.16;;;14.17;76.65
5126;BME280;63008;53.112;8.896;2022-08-21T04:21:17;101559.00;;;14.13;76.71
5126;BME280;63008;53.112;8.896;2022-08-21T04:23:19;101561.59;;;14.18;76.69
5126;BME280;63008;53.112;8.896;2022-08-21T04:25:21;101562.53;;;14.22;76.73
5126;BME280;63008;53.112;8.896;2022-08-21T04:27:22;101559.38;;;14.32;76.56
5126;BME280;63008;53.112;8.896;2022-08-21T04:29:23;101556.06;;;14.39;76.37
5126;BME280;63008;53.112;8.896;2022-08-21T04:31:24;101562.84;;;14.41;76.27
5126;BME280;63008;53.112;8.896;2022-08-21T04:33:25;101566.41;;;14.42;76.17
5126;BME280;63008;53.112;8.896;2022-08-21T04:35:32;101566.56;;;14.45;76.01
5126;BME280;63008;53.112;8.896;2022-08-21T04:37:33;101565.41;;;14.46;76.05
5126;BME280;63008;53.112;8.896;2022-08-21T04:39:34;101563.81;;;14.45;76.09
5126;BME280;63008;53.112;8.896;2022-08-21T04:41:35;101554.00;;;14.48;76.12
5126;BME280;63008;53.112;8.896;2022-08-21T04:43:49;101564.44;;;14.42;76.42
5126;BME280;63008;53.112;8.896;2022-08-21T04:45:56;101561.28;;;14.52;75.80
5126;BME280;63008;53.112;8.896;2022-08-21T04:48:00;101558.81;;;14.71;75.09
5126;BME280;63008;53.112;8.896;2022-08-21T04:50:01;101561.91;;;14.69;75.04
5126;BME280;63008;53.112;8.896;2022-08-21T04:52:02;101562.25;;;14.68;75.07
5126;BME280;63008;53.112;8.896;2022-08-21T04:54:14;101561.25;;;14.72;74.90
5126;BME280;63008;53.112;8.896;2022-08-21T04:56:36;101562.59;;;14.66;75.23
5126;BME280;63008;53.112;8.896;2022-08-21T04:58:38;101560.50;;;14.63;75.39
5126;BME280;63008;53.112;8.896;2022-08-21T05:00:39;101559.50;;;14.68;75.33
5126;BME280;63008;53.112;8.896;2022-08-21T05:02:41;101570.28;;;14.61;75.59
5126;BME280;63008;53.112;8.896;2022-08-21T05:04:44;101571.41;;;14.48;76.03
5126;BME280;63008;53.112;8.896;2022-08-21T05:06:46;101571.94;;;14.42;76.31
5126;BME280;63008;53.112;8.896;2022-08-21T05:08:49;101578.75;;;14.44;76.11
5126;BME280;63008;53.112;8.896;2022-08-21T05:10:52;101585.06;;;14.45;76.30
5126;BME280;63008;53.112;8.896;2022-08-21T05:12:53;101583.00;;;14.42;76.47
5126;BME280;63008;53.112;8.896;2022-08-21T05:14:54;101573.72;;;14.58;76.00
5126;BME280;63008;53.112;8.896;2022-08-21T05:16:54;101580.13;;;14.70;75.79
5126;BME280;63008;53.112;8.896;2022-08-21T05:18:55;101573.16;;;14.64;76.12
5126;BME280;63008;53.112;8.896;2022-08-21T05:20:55;101570.78;;;14.63;75.99
5126;BME280;63008;53.112;8.896;2022-08-21T05:23:11;101578.22;;;14.63;76.19
5126;BME280;63008;53.112;8.896;2022-08-21T05:25:12;101584.31;;;14.56;76.50
5126;BME280;63008;53.112;8.896;2022-08-21T05:27:13;101580.06;;;14.59;76.57
5126;BME280;63008;53.112;8.896;2022-08-21T05:29:15;101586.19;;;14.64;76.47
5126;BME280;63008;53.112;8.896;2022-08-21T05:31:18;101585.28;;;14.72;76.13
5126;BME280;63008;53.112;8.896;2022-08-21T05:33:19;101591.44;;;14.89;75.80
5126;BME280;63008;53.112;8.896;2022-08-21T05:35:19;101585.59;;;15.03;75.52
5126;BME280;63008;53.112;8.896;2022-08-21T05:37:20;101588.84;;;15.17;75.00
5126;BME280;63008;53.112;8.896;2022-08-21T05:39:21;101584.00;;;15.26;74.81
5126;BME280;63008;53.112;8.896;2022-08-21T05:41:21;101589.00;;;15.32;74.77
5126;BME280;63008;53.112;8.896;2022-08-21T05:43:22;101595.22;;;15.29;74.83
5126;BME280;63008;53.112;8.896;2022-08-21T05:45:36;101593.97;;;15.39;74.31
5126;BME280;63008;53.112;8.896;2022-08-21T05:47:37;101595.34;;;15.45;74.60
5126;BME280;63008;53.112;8.896;2022-08-21T05:49:37;101597.09;;;15.49;74.49
5126;BME280;63008;53.112;8.896;2022-08-21T05:51:41;101594.19;;;15.58;73.91
5126;BME280;63008;53.112;8.896;2022-08-21T05:53:43;101589.69;;;15.65;73.75
5126;BME280;63008;53.112;8.896;2022-08-21T05:55:44;101591.66;;;15.77;73.38
5126;BME280;63008;53.112;8.896;2022-08-21T05:57:44;101594.75;;;15.87;72.70
5126;BME280;63008;53.112;8.896;2022-08-21T05:59:45;101592.66;;;15.96;72.25
5126;BME280;63008;53.112;8.896;2022-08-21T06:01:46;101597.63;;;16.03;72.14
5126;BME280;63008;53.112;8.896;2022-08-21T06:03:46;101598.28;;;16.12;72.14
5126;BME280;63008;53.112;8.896;2022-08-21T06:05:47;101587.16;;;16.24;71.36
5126;BME280;63008;53.112;8.896;2022-08-21T06:07:48;101593.34;;;16.33;71.13
5126;BME280;63008;53.112;8.896;2022-08-21T06:09:49;101591.19;;;16.38;71.33
5126;BME280;63008;53.112;8.896;2022-08-21T06:11:49;101596.25;;;16.48;71.00
5126;BME280;63008;53.112;8.896;2022-08-21T06:13:50;101590.53;;;16.57;71.34
5126;BME280;63008;53.112;8.896;2022-08-21T06:16:07;101594.78;;;16.66;69.87
5126;BME280;63008;53.112;8.896;2022-08-21T06:18:09;101588.25;;;16.74;70.05
5126;BME280;63008;53.112;8.896;2022-08-21T06:20:09;101582.44;;;16.79;70.05
5126;BME280;63008;53.112;8.896;2022-08-21T06:22:10;101583.44;;;16.86;69.84
5126;BME280;63008;53.112;8.896;2022-08-21T06:24:16;101582.81;;;16.93;69.49
5126;BME280;63008;53.112;8.896;2022-08-21T06:26:17;101581.50;;;17.02;69.24
5126;BME280;63008;53.112;8.896;2022-08-21T06:28:18;101585.25;;;17.10;68.78
5126;BME280;63008;53.112;8.896;2022-08-21T06:30:19;101591.00;;;17.17;68.41
5126;BME280;63008;53.112;8.896;2022-08-21T06:32:19;101589.00;;;17.33;67.91
5126;BME280;63008;53.112;8.896;2022-08-21T06:34:20;101584.84;;;17.39;67.44
5126;BME280;63008;53.112;8.896;2022-08-21T06:36:20;101586.56;;;17.43;67.86
5126;BME280;63008;53.112;8.896;2022-08-21T06:38:21;101584.28;;;17.49;67.38
5126;BME280;63008;53.112;8.896;2022-08-21T06:40:22;101589.22;;;17.55;67.34
5126;BME280;63008;53.112;8.896;2022-08-21T06:42:36;101594.50;;;17.60;67.44
5126;BME280;63008;53.112;8.896;2022-08-21T06:44:50;101589.13;;;17.67;67.25
5126;BME280;63008;53.112;8.896;2022-08-21T06:46:51;101593.75;;;17.79;66.98
5126;BME280;63008;53.112;8.896;2022-08-21T06:48:52;101584.06;;;17.88;66.45
5126;BME280;63008;53.112;8.896;2022-08-21T06:50:52;101584.69;;;17.97;66.49
5126;BME280;63008;53.112;8.896;2022-08-21T06:53:06;101593.16;;;18.04;66.26
5126;BME280;63008;53.112;8.896;2022-08-21T06:55:08;101590.91;;;18.10;66.04
5126;BME280;63008;53.112;8.896;2022-08-21T06:57:09;101591.88;;;18.17;66.26
5126;BME280;63008;53.112;8.896;2022-08-21T06:59:10;101584.41;;;18.21;66.17
5126;BME280;63008;53.112;8.896;2022-08-21T07:01:11;101581.13;;;18.35;65.82
5126;BME280;63008;53.112;8.896;2022-08-21T07:03:23;101590.44;;;18.42;65.54
5126;BME280;63008;53.112;8.896;2022-08-21T07:05:26;101585.91;;;18.53;65.64
5126;BME280;63008;53.112;8.896;2022-08-21T07:07:27;101585.69;;;18.61;65.01
5126;BME280;63008;53.112;8.896;2022-08-21T07:09:28;101584.94;;;18.64;65.53
5126;BME280;63008;53.112;8.896;2022-08-21T07:11:28;101581.50;;;18.71;65.34
5126;BME280;63008;53.112;8.896;2022-08-21T07:13:29;101583.66;;;18.81;65.35
5126;BME280;63008;53.112;8.896;2022-08-21T07:15:30;101585.47;;;18.92;65.00
5126;BME280;63008;53.112;8.896;2022-08-21T07:17:31;101585.84;;;18.91;64.69
5126;BME280;63008;53.112;8.896;2022-08-21T07:19:32;101584.00;;;18.98;64.83
5126;BME280;63008;53.112;8.896;2022-08-21T07:21:32;101585.22;;;19.01;64.91
5126;BME280;63008;53.112;8.896;2022-08-21T07:23:36;101577.81;;;19.08;64.58
5126;BME280;63008;53.112;8.896;2022-08-21T07:25:37;101581.09;;;19.14;64.19
5126;BME280;63008;53.112;8.896;2022-08-21T07:27:38;101575.72;;;19.21;63.76
5126;BME280;63008;53.112;8.896;2022-08-21T07:29:38;101576.56;;;19.25;63.24
5126;BME280;63008;53.112;8.896;2022-08-21T07:31:39;101582.25;;;19.32;63.31
5126;BME280;63008;53.112;8.896;2022-08-21T07:33:41;101581.06;;;19.33;63.65
5126;BME280;63008;53.112;8.896;2022-08-21T07:35:42;101578.44;;;19.43;63.69
5126;BME280;63008;53.112;8.896;2022-08-21T07:37:42;101579.75;;;19.49;63.47
5126;BME280;63008;53.112;8.896;2022-08-21T07:39:50;101573.53;;;19.59;63.11
5126;BME280;63008;53.112;8.896;2022-08-21T07:41:57;101574.41;;;19.63;62.87
5126;BME280;63008;53.112;8.896;2022-08-21T07:44:11;101573.34;;;19.71;62.69
5126;BME280;63008;53.112;8.896;2022-08-21T07:46:12;101569.44;;;19.76;62.50
5126;BME280;63008;53.112;8.896;2022-08-21T07:48:13;101564.78;;;19.83;62.73
5126;BME280;63008;53.112;8.896;2022-08-21T07:50:14;101573.31;;;19.97;62.42
5126;BME280;63008;53.112;8.896;2022-08-21T07:52:16;101572.28;;;20.05;61.63
5126;BME280;63008;53.112;8.896;2022-08-21T07:54:16;101575.13;;;20.09;61.17
5126;BME280;63008;53.112;8.896;2022-08-21T07:56:17;101578.00;;;20.16;61.59
5126;BME280;63008;53.112;8.896;2022-08-21T07:58:18;101581.69;;;20.23;60.65
5126;BME280;63008;53.112;8.896;2022-08-21T08:00:22;101572.56;;;20.26;60.46
5126;BME280;63008;53.112;8.896;2022-08-21T08:02:29;101573.81;;;20.32;60.46
5126;BME280;63008;53.112;8.896;2022-08-21T08:04:30;101581.09;;;20.40;60.10
5126;BME280;63008;53.112;8.896;2022-08-21T08:06:30;101571.22;;;20.46;60.40
5126;BME280;63008;53.112;8.896;2022-08-21T08:08:31;101578.50;;;20.54;59.78
5126;BME280;63008;53.112;8.896;2022-08-21T08:10:32;101576.59;;;20.61;59.44
5126;BME280;63008;53.112;8.896;2022-08-21T08:12:38;101574.59;;;20.62;59.32
5126;BME280;63008;53.112;8.896;2022-08-21T08:14:39;101579.50;;;20.72;58.69
5126;BME280;63008;53.112;8.896;2022-08-21T08:16:39;101575.53;;;20.73;58.23
5126;BME280;63008;53.112;8.896;2022-08-21T08:18:40;101572.53;;;20.88;57.70
5126;BME280;63008;53.112;8.896;2022-08-21T08:20:42;101579.34;;;20.91;56.23
5126;BME280;63008;53.112;8.896;2022-08-21T08:22:44;101569.75;;;20.88;55.54
5126;BME280;63008;53.112;8.896;2022-08-21T08:24:46;101570.13;;;20.87;55.65
5126;BME280;63008;53.112;8.896;2022-08-21T08:26:47;101568.19;;;20.94;55.38
5126;BME280;63008;53.112;8.896;2022-08-21T08:28:47;101577.47;;;21.05;56.10
5126;BME280;63008;53.112;8.896;2022-08-21T08:30:48;101579.19;;;21.13;56.00
5126;BME280;63008;53.112;8.896;2022-08-21T08:32:49;101576.44;;;21.20;54.99
5126;BME280;63008;53.112;8.896;2022-08-21T08:34:51;101575.72;;;21.30;55.20
5126;BME280;63008;53.112;8.896;2022-08-21T08:36:52;101570.25;;;21.44;55.00
5126;BME280;63008;53.112;8.896;2022-08-21T08:38:53;101574.69;;;21.49;54.07
5126;BME280;63008;53.112;8.896;2022-08-21T08:41:14;101575.91;;;21.51;53.96
5126;BME280;63008;53.112;8.896;2022-08-21T08:43:22;101569.31;;;21.73;53.80
5126;BME280;63008;53.112;8.896;2022-08-21T08:45:39;101567.78;;;21.83;53.29
5126;BME280;63008;53.112;8.896;2022-08-21T08:47:47;101567.06;;;21.93;52.90
5126;BME280;63008;53.112;8.896;2022-08-21T08:50:00;101569.84;;;21.93;52.08
5126;BME280;63008;53.112;8.896;2022-08-21T08:52:29;101574.34;;;22.11;52.13
5126;BME280;63008;53.112;8.896;2022-08-21T08:54:39;101574.06;;;22.33;51.24
5126;BME280;63008;53.112;8.896;2022-08-21T08:56:41;101568.50;;;22.40;49.22
5126;BME280;63008;53.112;8.896;2022-08-21T08:58:44;101566.91;;;22.39;49.72
5126;BME280;63008;53.112;8.896;2022-08-21T09:00:47;101566.56;;;22.51;49.48
5126;BME280;63008;53.112;8.896;2022-08-21T09:02:52;101573.03;;;22.69;49.22
5126;BME280;63008;53.112;8.896;2022-08-21T09:04:55;101563.03;;;22.79;49.03
5126;BME280;63008;53.112;8.896;2022-08-21T09:09:02;101557.13;;;23.19;48.46
5126;BME280;63008;53.112;8.896;2022-08-21T09:19:48;101553.06;;;24.04;46.60
5126;BME280;63008;53.112;8.896;2022-08-21T09:22:06;101555.69;;;24.45;45.25
5126;BME280;63008;53.112;8.896;2022-08-21T09:24:49;101552.28;;;24.89;44.48
5126;BME280;63008;53.112;8.896;2022-08-21T09:27:15;101552.19;;;25.03;44.91
5126;BME280;63008;53.112;8.896;2022-08-21T09:29:19;101553.81;;;24.18;46.35
5126;BME280;63008;53.112;8.896;2022-08-21T09:33:27;101546.06;;;24.50;44.92
5126;BME280;63008;53.112;8.896;2022-08-21T09:35:28;101533.97;;;24.67;45.10
5126;BME280;63008;53.112;8.896;2022-08-21T09:37:32;101549.66;;;25.15;44.12
5126;BME280;63008;53.112;8.896;2022-08-21T09:39:39;101550.38;;;25.33;43.86
5126;BME280;63008;53.112;8.896;2022-08-21T09:42:07;101542.53;;;25.07;43.01
5126;BME280;63008;53.112;8.896;2022-08-21T09:44:28;101543.97;;;25.29;43.13
5126;BME280;63008;53.112;8.896;2022-08-21T09:46:29;101545.97;;;26.13;42.22
5126;BME280;63008;53.112;8.896;2022-08-21T09:48:48;101542.03;;;26.07;42.29
5126;BME280;63008;53.112;8.896;2022-08-21T09:50:50;101547.94;;;26.49;41.39
5126;BME280;63008;53.112;8.896;2022-08-21T09:52:53;101542.22;;;26.86;40.83
5126;BME280;63008;53.112;8.896;2022-08-21T09:54:55;101541.94;;;26.77;40.28
5126;BME280;63008;53.112;8.896;2022-08-21T09:57:06;101532.38;;;26.98;40.47
5126;BME280;63008;53.112;8.896;2022-08-21T09:59:33;101536.69;;;26.76;40.78
5126;BME280;63008;53.112;8.896;2022-08-21T10:01:43;101537.38;;;26.27;42.31
5126;BME280;63008;53.112;8.896;2022-08-21T10:03:45;101536.41;;;26.07;42.17
5126;BME280;63008;53.112;8.896;2022-08-21T10:06:21;101534.03;;;26.65;41.64
5126;BME280;63008;53.112;8.896;2022-08-21T10:08:25;101530.16;;;27.12;40.88
5126;BME280;63008;53.112;8.896;2022-08-21T10:10:29;101537.66;;;26.03;42.69
5126;BME280;63008;53.112;8.896;2022-08-21T10:15:19;101537.31;;;25.97;41.57
5126;BME280;63008;53.112;8.896;2022-08-21T10:20:08;101538.38;;;26.40;42.26
5126;BME280;63008;53.112;8.896;2022-08-21T10:24:27;101534.78;;;26.39;42.18
5126;BME280;63008;53.112;8.896;2022-08-21T10:28:39;101532.41;;;26.94;41.28
5126;BME280;63008;53.112;8.896;2022-08-21T10:33:24;101525.75;;;27.80;38.86
5126;BME280;63008;53.112;8.896;2022-08-21T10:35:31;101522.66;;;27.94;37.80
5126;BME280;63008;53.112;8.896;2022-08-21T10:38:49;101524.31;;;27.92;38.30
5126;BME280;63008;53.112;8.896;2022-08-21T10:43:07;101522.97;;;29.09;36.47
5126;BME280;63008;53.112;8.896;2022-08-21T10:45:57;101518.81;;;28.78;36.81
5126;BME280;63008;53.112;8.896;2022-08-21T10:48:04;101528.94;;;28.95;35.69
5126;BME280;63008;53.112;8.896;2022-08-21T10:56:29;101516.66;;;28.66;35.46
5126;BME280;63008;53.112;8.896;2022-08-21T10:58:38;101520.28;;;29.02;35.56
5126;BME280;63008;53.112;8.896;2022-08-21T11:00:51;101528.88;;;28.99;35.52
5126;BME280;63008;53.112;8.896;2022-08-21T11:03:04;101517.81;;;29.36;34.10
5126;BME280;63008;53.112;8.896;2022-08-21T11:05:31;101512.69;;;29.15;35.27
5126;BME280;63008;53.112;8.896;2022-08-21T11:07:33;101511.28;;;29.23;34.62
5126;BME280;63008;53.112;8.896;2022-08-21T11:09:40;101511.88;;;29.63;34.42
5126;BME280;63008;53.112;8.896;2022-08-21T11:12:05;101512.44;;;29.26;34.99
5126;BME280;63008;53.112;8.896;2022-08-21T11:14:41;101509.66;;;29.99;34.58
5126;BME280;63008;53.112;8.896;2022-08-21T11:19:13;101502.84;;;28.37;34.44
5126;BME280;63008;53.112;8.896;2022-08-21T11:21:27;101511.78;;;28.51;35.06
5126;BME280;63008;53.112;8.896;2022-08-21T11:23:46;101509.09;;;27.63;36.60
5126;BME280;63008;53.112;8.896;2022-08-21T11:25:52;101509.25;;;28.56;35.52
5126;BME280;63008;53.112;8.896;2022-08-21T11:27:59;101505.81;;;28.26;35.48
5126;BME280;63008;53.112;8.896;2022-08-21T11:30:03;101513.03;;;28.11;35.60
5126;BME280;63008;53.112;8.896;2022-08-21T11:32:32;101509.56;;;27.38;36.19
5126;BME280;63008;53.112;8.896;2022-08-21T11:44:15;101507.94;;;26.61;39.59